Time;durP1;ratioP1;P1;durP2;ratioP2;P2;SDS_P1;SDS_P2;PMS_P1;PMS_P2;Temp;Humidity;BMP_temperature;BMP_pressure;BME280_temperature;BME280_humidity;BME280_pressure;Samples;Min_cycle;Max_cycle;Signal;HPM_P1;HPM_P2
2022/09/05 00:00:04;;;;;;;2.10;2.00;;;;;;;;;;5100046;28;20488;-69
2022/09/05 00:02:46;;;;;;;2.00;1.90;;;;;;;;;;5099919;28;20235;-69
2022/09/05 00:05:31;;;;;;;2.00;1.90;;;;;;;;;;5071232;28;20581;-69
2022/09/05 00:08:03;;;;;;;2.30;2.20;;;;;;;;;;5062438;28;20299;-69
2022/09/05 00:10:35;;;;;;;2.10;1.90;;;;;;;;;;5079292;28;20215;-68
2022/09/05 00:13:03;;;;;;;2.10;2.00;;;;;;;;;;5078978;28;20505;-69
2022/09/05 00:15:36;;;;;;;2.22;2.13;;;;;;;;;;5079441;28;20203;-69
2022/09/05 00:18:27;;;;;;;2.30;2.20;;;;;;;;;;5078610;28;20212;-69
2022/09/05 00:21:00;;;;;;;2.00;1.90;;;;;;;;;;5077887;28;20239;-69
2022/09/05 00:23:44;;;;;;;2.30;2.20;;;;;;;;;;5078331;28;20291;-69
2022/09/05 00:26:18;;;;;;;2.30;2.10;;;;;;;;;;5096633;28;20211;-69
2022/09/05 00:28:48;;;;;;;2.20;2.10;;;;;;;;;;5099285;28;20211;-69
2022/09/05 00:31:21;;;;;;;2.00;1.90;;;;;;;;;;5099481;28;20203;-69
2022/09/05 00:33:53;;;;;;;2.15;2.05;;;;;;;;;;5099071;28;20302;-69
2022/09/05 00:36:23;;;;;;;2.35;2.17;;;;;;;;;;5090156;28;20319;-69
2022/09/05 00:38:58;;;;;;;2.13;2.03;;;;;;;;;;5078416;28;20203;-69
2022/09/05 00:41:26;;;;;;;2.25;2.15;;;;;;;;;;5077888;28;20238;-69
2022/09/05 00:43:55;;;;;;;2.00;1.90;;;;;;;;;;5078226;28;20505;-69
2022/09/05 00:46:25;;;;;;;2.08;1.98;;;;;;;;;;5083179;28;20228;-69
2022/09/05 00:48:54;;;;;;;2.10;2.00;;;;;;;;;;5078216;28;20204;-69
2022/09/05 00:51:27;;;;;;;2.15;2.05;;;;;;;;;;5077834;28;20554;-70
2022/09/05 00:54:03;;;;;;;2.08;1.98;;;;;;;;;;5078247;28;20204;-69
2022/09/05 00:56:37;;;;;;;2.28;2.08;;;;;;;;;;5077744;28;20204;-70
2022/09/05 00:59:28;;;;;;;2.00;1.90;;;;;;;;;;5078615;28;20299;-69
2022/09/05 01:01:59;;;;;;;2.20;2.10;;;;;;;;;;5077601;28;20238;-70
2022/09/05 01:04:33;;;;;;;2.42;2.20;;;;;;;;;;5078914;28;20195;-69
2022/09/05 01:07:08;;;;;;;2.05;1.95;;;;;;;;;;5078176;28;20227;-69
2022/09/05 01:09:45;;;;;;;2.50;2.30;;;;;;;;;;5078043;28;20204;-69
2022/09/05 01:12:21;;;;;;;2.08;1.98;;;;;;;;;;5077632;28;20298;-69
2022/09/05 01:14:57;;;;;;;2.47;2.15;;;;;;;;;;5083368;28;20200;-69
2022/09/05 01:17:29;;;;;;;2.30;2.10;;;;;;;;;;5097635;28;20211;-69
2022/09/05 01:20:10;;;;;;;2.03;1.92;;;;;;;;;;5098371;28;20203;-69
2022/09/05 01:22:50;;;;;;;2.38;2.28;;;;;;;;;;5098203;28;20223;-69
2022/09/05 01:25:26;;;;;;;2.60;2.40;;;;;;;;;;5087694;28;20200;-69
2022/09/05 01:27:57;;;;;;;2.10;2.00;;;;;;;;;;5077513;28;20358;-69
2022/09/05 01:30:27;;;;;;;2.10;2.00;;;;;;;;;;5077789;28;20230;-69
2022/09/05 01:33:01;;;;;;;2.03;1.92;;;;;;;;;;5077346;28;20200;-69
2022/09/05 01:35:50;;;;;;;2.50;2.30;;;;;;;;;;5088200;28;20199;-70
2022/09/05 01:38:20;;;;;;;2.25;2.10;;;;;;;;;;5097826;28;20218;-69
2022/09/05 01:40:53;;;;;;;2.10;2.00;;;;;;;;;;5097145;28;20214;-69
2022/09/05 01:43:27;;;;;;;2.22;2.13;;;;;;;;;;5097741;28;20191;-69
2022/09/05 01:45:56;;;;;;;2.22;2.13;;;;;;;;;;5082331;28;20295;-69
2022/09/05 01:48:29;;;;;;;2.10;2.00;;;;;;;;;;5076441;28;20706;-70
2022/09/05 01:51:00;;;;;;;2.30;2.20;;;;;;;;;;5077299;28;20204;-69
2022/09/05 01:53:34;;;;;;;2.30;2.20;;;;;;;;;;5077341;28;20204;-69
2022/09/05 01:56:16;;;;;;;2.30;2.20;;;;;;;;;;5091340;28;20210;-69
2022/09/05 01:58:57;;;;;;;2.30;2.20;;;;;;;;;;5080739;28;20203;-69
2022/09/05 02:01:29;;;;;;;2.38;2.17;;;;;;;;;;5097238;28;20238;-70
2022/09/05 02:04:10;;;;;;;2.10;2.00;;;;;;;;;;5097422;28;20603;-69
2022/09/05 02:06:40;;;;;;;2.50;2.30;;;;;;;;;;5092846;28;20279;-70
2022/09/05 02:09:26;;;;;;;2.20;2.10;;;;;;;;;;5077033;28;20269;-69
2022/09/05 02:11:57;;;;;;;1.88;1.77;;;;;;;;;;5077114;28;20303;-69
2022/09/05 02:14:31;;;;;;;2.30;2.20;;;;;;;;;;5078772;28;20215;-69
2022/09/05 02:17:07;;;;;;;2.50;2.30;;;;;;;;;;5097061;28;20591;-69
2022/09/05 02:19:44;;;;;;;2.40;2.30;;;;;;;;;;5097252;28;20203;-69
2022/09/05 02:22:12;;;;;;;2.22;2.13;;;;;;;;;;5097549;28;20231;-69
2022/09/05 02:24:42;;;;;;;2.22;2.13;;;;;;;;;;5093954;28;20196;-69
2022/09/05 02:27:14;;;;;;;2.50;2.30;;;;;;;;;;5077059;28;20200;-70
2022/09/05 02:29:45;;;;;;;2.35;2.25;;;;;;;;;;5076783;28;20214;-68
2022/09/05 02:32:14;;;;;;;2.42;2.33;;;;;;;;;;5077228;28;20200;-69
2022/09/05 02:34:45;;;;;;;2.08;1.98;;;;;;;;;;5088211;28;20199;-70
2022/09/05 02:37:15;;;;;;;2.22;2.13;;;;;;;;;;5096879;28;20492;-69
2022/09/05 02:39:46;;;;;;;2.00;1.90;;;;;;;;;;5097329;28;20226;-69
2022/09/05 02:42:17;;;;;;;2.33;2.22;;;;;;;;;;5096962;28;20223;-69
2022/09/05 02:44:52;;;;;;;2.30;2.20;;;;;;;;;;5096653;28;20204;-69
2022/09/05 02:47:22;;;;;;;2.40;2.30;;;;;;;;;;5096748;28;20244;-70
2022/09/05 02:49:55;;;;;;;2.20;2.10;;;;;;;;;;5096852;28;20610;-69
2022/09/05 02:52:25;;;;;;;2.38;2.28;;;;;;;;;;5096680;28;20588;-70
2022/09/05 02:54:54;;;;;;;2.38;2.22;;;;;;;;;;5080237;28;20212;-69
2022/09/05 02:57:32;;;;;;;2.17;2.08;;;;;;;;;;5076314;28;20204;-69
2022/09/05 03:00:06;;;;;;;2.40;2.30;;;;;;;;;;5077872;28;20204;-68
2022/09/05 03:02:37;;;;;;;2.30;2.10;;;;;;;;;;5080578;28;20230;-69
2022/09/05 03:05:09;;;;;;;2.65;2.45;;;;;;;;;;5080158;28;20239;-69
2022/09/05 03:07:49;;;;;;;2.60;2.40;;;;;;;;;;5100403;28;20203;-69
2022/09/05 03:10:21;;;;;;;2.15;2.05;;;;;;;;;;5100132;28;20211;-70
2022/09/05 03:13:10;;;;;;;2.20;2.10;;;;;;;;;;5100054;28;20196;-68
2022/09/05 03:15:58;;;;;;;2.10;2.00;;;;;;;;;;5098036;28;20208;-70
2022/09/05 03:18:58;;;;;;;2.30;2.20;;;;;;;;;;5100110;28;20222;-69
2022/09/05 03:21:38;;;;;;;2.10;2.00;;;;;;;;;;5018614;28;20207;-69
2022/09/05 03:24:26;;;;;;;2.30;2.13;;;;;;;;;;5017811;28;20575;-69
2022/09/05 03:27:12;;;;;;;2.30;2.20;;;;;;;;;;5059208;28;20617;-69
2022/09/05 03:29:48;;;;;;;2.83;2.63;;;;;;;;;;5079676;28;20597;-69
2022/09/05 03:32:49;;;;;;;2.25;2.13;;;;;;;;;;5079491;28;20675;-69
2022/09/05 03:35:48;;;;;;;2.15;2.05;;;;;;;;;;5082457;28;20663;-69
2022/09/05 03:38:32;;;;;;;2.50;2.40;;;;;;;;;;5093247;28;20208;-69
2022/09/05 03:41:07;;;;;;;2.17;2.08;;;;;;;;;;5098866;28;20219;-69
2022/09/05 03:43:45;;;;;;;2.72;2.53;;;;;;;;;;5099335;28;20238;-69
2022/09/05 03:46:27;;;;;;;2.22;2.10;;;;;;;;;;5099135;28;20235;-69
2022/09/05 03:49:11;;;;;;;2.30;2.20;;;;;;;;;;5089797;28;20313;-69
2022/09/05 03:51:44;;;;;;;2.40;2.30;;;;;;;;;;5099547;28;20234;-69
2022/09/05 03:54:30;;;;;;;2.60;2.40;;;;;;;;;;5089272;28;20207;-69
2022/09/05 03:57:12;;;;;;;2.40;2.20;;;;;;;;;;5071930;28;20204;-68
2022/09/05 04:00:06;;;;;;;2.40;2.30;;;;;;;;;;5061650;28;20212;-69
2022/09/05 04:02:34;;;;;;;2.45;2.28;;;;;;;;;;5078958;28;20239;-68
2022/09/05 04:05:05;;;;;;;2.30;2.10;;;;;;;;;;5078571;28;20303;-69
2022/09/05 04:07:38;;;;;;;2.60;2.40;;;;;;;;;;5078697;28;20268;-68
2022/09/05 04:10:07;;;;;;;2.42;2.22;;;;;;;;;;5079010;28;20204;-69
2022/09/05 04:12:36;;;;;;;2.40;2.30;;;;;;;;;;5078214;28;20266;-69
2022/09/05 04:15:07;;;;;;;2.33;2.22;;;;;;;;;;5092702;28;20204;-69
2022/09/05 04:17:36;;;;;;;2.47;2.38;;;;;;;;;;5098483;28;20312;-69
2022/09/05 04:20:08;;;;;;;2.28;2.08;;;;;;;;;;5098491;28;20214;-68
2022/09/05 04:22:41;;;;;;;2.30;2.20;;;;;;;;;;5098744;28;20242;-69
2022/09/05 04:25:13;;;;;;;2.45;2.28;;;;;;;;;;5098068;28;20659;-69
2022/09/05 04:27:46;;;;;;;2.30;2.10;;;;;;;;;;5098496;28;20207;-69
2022/09/05 04:30:28;;;;;;;2.28;2.17;;;;;;;;;;5098033;28;20203;-69
2022/09/05 04:33:00;;;;;;;2.40;2.20;;;;;;;;;;5098402;28;20219;-69
2022/09/05 04:35:36;;;;;;;2.47;2.38;;;;;;;;;;5097883;28;20212;-69
2022/09/05 04:38:09;;;;;;;2.30;2.20;;;;;;;;;;5077558;28;20204;-69
2022/09/05 04:40:38;;;;;;;2.47;2.28;;;;;;;;;;5077276;28;20589;-69
2022/09/05 04:43:07;;;;;;;2.55;2.45;;;;;;;;;;5076842;28;20228;-69
2022/09/05 04:45:37;;;;;;;2.60;2.40;;;;;;;;;;5076896;28;20239;-69
2022/09/05 04:48:06;;;;;;;2.33;2.22;;;;;;;;;;5037464;28;20233;-69
2022/09/05 04:50:40;;;;;;;2.50;2.40;;;;;;;;;;5036869;28;20198;-69
2022/09/05 04:53:12;;;;;;;2.30;2.20;;;;;;;;;;5036503;28;20217;-69
2022/09/05 04:55:41;;;;;;;2.40;2.30;;;;;;;;;;5036111;28;20205;-69
2022/09/05 04:58:14;;;;;;;2.40;2.30;;;;;;;;;;5035957;28;20205;-68
2022/09/05 05:00:47;;;;;;;2.40;2.30;;;;;;;;;;5043824;28;20275;-69
2022/09/05 05:03:16;;;;;;;2.40;2.30;;;;;;;;;;5035182;28;20236;-69
2022/09/05 05:05:56;;;;;;;2.45;2.35;;;;;;;;;;5035851;28;20197;-69
2022/09/05 05:08:25;;;;;;;2.42;2.33;;;;;;;;;;5055503;28;20261;-68
2022/09/05 05:10:56;;;;;;;2.47;2.35;;;;;;;;;;5054564;28;20215;-70
2022/09/05 05:13:28;;;;;;;2.35;2.22;;;;;;;;;;5054545;28;20202;-69
2022/09/05 05:15:59;;;;;;;2.35;2.25;;;;;;;;;;5055165;28;20236;-69
2022/09/05 05:18:27;;;;;;;2.25;2.15;;;;;;;;;;5055125;28;20201;-69
2022/09/05 05:20:58;;;;;;;2.22;2.13;;;;;;;;;;5054369;28;20205;-69
2022/09/05 05:23:34;;;;;;;2.22;2.13;;;;;;;;;;5053671;28;20247;-69
2022/09/05 05:26:03;;;;;;;2.13;2.03;;;;;;;;;;5054222;28;20193;-68
2022/09/05 05:28:39;;;;;;;2.45;2.35;;;;;;;;;;5054570;28;20616;-68
2022/09/05 05:31:13;;;;;;;2.20;2.10;;;;;;;;;;5054253;28;20295;-69
2022/09/05 05:33:41;;;;;;;2.10;2.00;;;;;;;;;;5054974;28;20493;-69
2022/09/05 05:36:10;;;;;;;2.50;2.30;;;;;;;;;;5055247;28;20209;-69
2022/09/05 05:38:41;;;;;;;2.33;2.20;;;;;;;;;;5055575;28;20205;-68
2022/09/05 05:41:13;;;;;;;2.45;2.35;;;;;;;;;;5055528;28;20223;-69
2022/09/05 05:43:41;;;;;;;2.20;2.10;;;;;;;;;;5055573;28;20316;-69
2022/09/05 05:46:14;;;;;;;2.40;2.30;;;;;;;;;;5061859;28;20227;-68
2022/09/05 05:48:43;;;;;;;2.35;2.25;;;;;;;;;;5096409;28;20282;-68
2022/09/05 05:51:25;;;;;;;2.72;2.53;;;;;;;;;;5095391;28;20593;-69
2022/09/05 05:53:57;;;;;;;2.30;2.15;;;;;;;;;;5076340;28;20188;-69
2022/09/05 05:56:39;;;;;;;2.40;2.30;;;;;;;;;;5075114;28;20212;-69
2022/09/05 05:59:33;;;;;;;2.40;2.30;;;;;;;;;;5072705;28;20204;-69
2022/09/05 06:02:21;;;;;;;2.60;2.40;;;;;;;;;;5074129;28;20281;-69
2022/09/05 06:05:09;;;;;;;2.63;2.42;;;;;;;;;;5052559;28;20207;-69
2022/09/05 06:07:44;;;;;;;2.45;2.35;;;;;;;;;;5094382;28;20218;-68
2022/09/05 06:10:25;;;;;;;3.17;2.40;;;;;;;;;;5095139;28;20219;-69
2022/09/05 06:13:11;;;;;;;2.22;2.13;;;;;;;;;;5094280;28;20210;-69
2022/09/05 06:16:04;;;;;;;2.30;2.20;;;;;;;;;;5094227;28;20214;-69
2022/09/05 06:18:58;;;;;;;2.30;2.20;;;;;;;;;;5094657;28;20210;-68
2022/09/05 06:21:33;;;;;;;2.70;2.50;;;;;;;;;;5038587;28;20205;-69
2022/09/05 06:24:17;;;;;;;2.58;2.47;;;;;;;;;;5074278;28;20322;-69
2022/09/05 06:26:57;;;;;;;2.10;2.00;;;;;;;;;;5075343;28;20503;-69
2022/09/05 06:29:36;;;;;;;2.40;2.30;;;;;;;;;;5074689;28;20568;-69
2022/09/05 06:32:08;;;;;;;2.55;2.45;;;;;;;;;;5074637;28;20219;-69
2022/09/05 06:34:48;;;;;;;2.40;2.30;;;;;;;;;;5073958;28;20200;-69
2022/09/05 06:37:23;;;;;;;2.70;2.50;;;;;;;;;;5078098;28;20196;-70
2022/09/05 06:39:59;;;;;;;2.35;2.25;;;;;;;;;;5078533;28;20204;-69
2022/09/05 06:42:30;;;;;;;2.75;2.60;;;;;;;;;;5078095;28;20581;-69
2022/09/05 06:45:07;;;;;;;2.53;2.40;;;;;;;;;;5078389;28;20210;-69
2022/09/05 06:47:36;;;;;;;2.40;2.20;;;;;;;;;;5091043;28;20322;-69
2022/09/05 06:50:10;;;;;;;2.47;2.28;;;;;;;;;;5098051;28;20196;-70
2022/09/05 06:52:55;;;;;;;2.42;2.33;;;;;;;;;;5098024;28;20519;-70
2022/09/05 06:55:33;;;;;;;2.40;2.30;;;;;;;;;;5098533;28;20222;-69
2022/09/05 06:58:14;;;;;;;2.55;2.45;;;;;;;;;;5098191;28;20207;-70
2022/09/05 07:00:46;;;;;;;2.58;2.47;;;;;;;;;;5098350;28;20214;-70
2022/09/05 07:03:32;;;;;;;2.58;2.38;;;;;;;;;;5097327;28;20219;-69
2022/09/05 07:06:01;;;;;;;2.47;2.28;;;;;;;;;;5090600;28;20239;-70
2022/09/05 07:08:34;;;;;;;2.35;2.25;;;;;;;;;;5097552;28;20227;-69
2022/09/05 07:11:05;;;;;;;2.50;2.30;;;;;;;;;;5097544;28;20278;-69
2022/09/05 07:13:35;;;;;;;2.40;2.30;;;;;;;;;;5081959;28;20196;-69
2022/09/05 07:16:07;;;;;;;2.88;2.60;;;;;;;;;;5076589;28;20208;-69
2022/09/05 07:18:42;;;;;;;2.60;2.40;;;;;;;;;;5077655;28;20790;-70
2022/09/05 07:21:14;;;;;;;2.63;2.42;;;;;;;;;;5076972;28;20200;-70
2022/09/05 07:23:47;;;;;;;2.70;2.20;;;;;;;;;;5076924;28;20228;-70
2022/09/05 07:26:17;;;;;;;2.35;2.25;;;;;;;;;;5076217;28;20200;-70
2022/09/05 07:28:45;;;;;;;2.50;2.40;;;;;;;;;;5077938;28;20207;-69
2022/09/05 07:31:15;;;;;;;2.58;2.30;;;;;;;;;;5077249;28;20299;-70
2022/09/05 07:33:44;;;;;;;2.30;2.20;;;;;;;;;;5076839;28;20204;-70
2022/09/05 07:36:12;;;;;;;2.40;2.20;;;;;;;;;;5076654;28;20204;-70
2022/09/05 07:38:42;;;;;;;2.25;2.15;;;;;;;;;;5076263;28;20504;-70
2022/09/05 07:41:13;;;;;;;2.10;2.00;;;;;;;;;;5082439;28;20584;-69
2022/09/05 07:43:45;;;;;;;2.38;2.28;;;;;;;;;;5096869;28;20228;-69
2022/09/05 07:46:13;;;;;;;2.50;2.10;;;;;;;;;;5096123;28;20258;-70
2022/09/05 07:48:42;;;;;;;2.30;2.20;;;;;;;;;;5096071;28;20298;-70
2022/09/05 07:51:13;;;;;;;2.38;2.17;;;;;;;;;;5096547;28;20203;-70
2022/09/05 07:53:43;;;;;;;2.20;2.10;;;;;;;;;;5096554;28;20552;-69
2022/09/05 07:56:11;;;;;;;2.30;2.20;;;;;;;;;;5097057;28;20302;-69
2022/09/05 07:58:40;;;;;;;2.30;2.20;;;;;;;;;;5096402;28;20208;-69
2022/09/05 08:01:11;;;;;;;2.35;2.25;;;;;;;;;;5097062;28;20195;-69
2022/09/05 08:03:38;;;;;;;2.33;2.13;;;;;;;;;;5082714;28;20232;-70
2022/09/05 08:06:09;;;;;;;2.03;1.92;;;;;;;;;;5075510;28;20283;-70
2022/09/05 08:08:40;;;;;;;2.22;2.13;;;;;;;;;;5077148;28;20196;-70
2022/09/05 08:11:12;;;;;;;2.10;2.00;;;;;;;;;;5076263;28;20208;-69
2022/09/05 08:13:51;;;;;;;2.20;2.10;;;;;;;;;;5077177;28;20201;-70
2022/09/05 08:16:22;;;;;;;2.00;1.90;;;;;;;;;;5076098;28;20212;-69
2022/09/05 08:18:51;;;;;;;2.40;2.20;;;;;;;;;;5092297;28;20687;-69
2022/09/05 08:21:22;;;;;;;2.08;1.98;;;;;;;;;;5095757;28;20295;-69
2022/09/05 08:23:55;;;;;;;2.15;2.05;;;;;;;;;;5095361;28;20318;-70
2022/09/05 08:26:29;;;;;;;2.47;2.38;;;;;;;;;;5095363;28;20214;-69
2022/09/05 08:29:00;;;;;;;2.47;2.38;;;;;;;;;;5095964;28;20203;-70
2022/09/05 08:31:33;;;;;;;2.30;2.20;;;;;;;;;;5095024;28;20204;-70
2022/09/05 08:34:03;;;;;;;2.20;2.10;;;;;;;;;;5094679;28;20214;-70
2022/09/05 08:36:35;;;;;;;2.75;2.15;;;;;;;;;;5095709;28;20203;-69
2022/09/05 08:39:04;;;;;;;2.17;2.08;;;;;;;;;;5096262;28;20210;-69
2022/09/05 08:41:34;;;;;;;2.63;2.42;;;;;;;;;;5096341;28;20200;-70
2022/09/05 08:44:05;;;;;;;2.13;2.03;;;;;;;;;;5082746;28;20220;-69
2022/09/05 08:46:36;;;;;;;2.40;2.30;;;;;;;;;;5074880;28;20235;-70
2022/09/05 08:49:14;;;;;;;2.40;2.30;;;;;;;;;;5075148;28;20208;-70
2022/09/05 08:51:42;;;;;;;2.33;2.20;;;;;;;;;;5073300;28;20214;-69
2022/09/05 08:54:16;;;;;;;2.45;2.35;;;;;;;;;;5074343;28;20200;-70
2022/09/05 08:56:50;;;;;;;2.20;2.10;;;;;;;;;;5073615;28;20203;-70
2022/09/05 08:59:25;;;;;;;2.20;2.10;;;;;;;;;;5074891;28;20307;-69
2022/09/05 09:02:10;;;;;;;2.53;2.42;;;;;;;;;;5075437;28;20243;-70
2022/09/05 09:04:41;;;;;;;2.15;2.05;;;;;;;;;;5074658;28;20231;-70
2022/09/05 09:07:11;;;;;;;2.30;2.20;;;;;;;;;;5075405;28;20206;-70
2022/09/05 09:09:46;;;;;;;2.40;2.30;;;;;;;;;;5074768;28;20622;-70
2022/09/05 09:12:28;;;;;;;2.90;2.70;;;;;;;;;;5073760;28;20204;-70
2022/09/05 09:14:58;;;;;;;2.40;2.30;;;;;;;;;;5074150;28;20269;-70
2022/09/05 09:17:31;;;;;;;2.97;2.78;;;;;;;;;;5074436;28;20496;-69
2022/09/05 09:20:09;;;;;;;2.97;2.78;;;;;;;;;;5074025;28;20306;-69
2022/09/05 09:22:40;;;;;;;3.10;2.88;;;;;;;;;;5074287;28;20204;-70
2022/09/05 09:25:09;;;;;;;3.13;2.83;;;;;;;;;;5073348;28;20604;-70
2022/09/05 09:27:44;;;;;;;2.75;2.65;;;;;;;;;;5073565;28;20196;-69
2022/09/05 09:30:12;;;;;;;3.40;3.13;;;;;;;;;;5074214;28;20233;-69
2022/09/05 09:32:44;;;;;;;3.15;2.90;;;;;;;;;;5074254;28;20196;-70
2022/09/05 09:35:17;;;;;;;2.70;2.50;;;;;;;;;;5074022;28;20572;-70
2022/09/05 09:38:08;;;;;;;2.75;2.55;;;;;;;;;;5074426;28;20297;-70
2022/09/05 09:40:45;;;;;;;2.55;2.45;;;;;;;;;;5053448;28;20552;-70
2022/09/05 09:43:18;;;;;;;2.65;2.45;;;;;;;;;;5072760;28;20823;-70
2022/09/05 09:45:53;;;;;;;2.70;2.50;;;;;;;;;;5073373;28;20314;-69
2022/09/05 09:48:41;;;;;;;2.92;2.72;;;;;;;;;;5073006;28;20294;-70
2022/09/05 09:51:18;;;;;;;2.65;2.50;;;;;;;;;;5067681;28;20204;-70
2022/09/05 09:53:51;;;;;;;2.90;2.70;;;;;;;;;;5074095;28;20200;-70
2022/09/05 09:56:33;;;;;;;4.63;2.80;;;;;;;;;;5083209;28;20196;-70
2022/09/05 09:59:18;;;;;;;2.67;2.47;;;;;;;;;;5087963;28;20212;-69
2022/09/05 10:01:52;;;;;;;5.72;2.72;;;;;;;;;;5093854;28;20203;-69
2022/09/05 10:04:37;;;;;;;2.63;2.42;;;;;;;;;;5093544;28;20322;-69
2022/09/05 10:07:23;;;;;;;3.22;3.03;;;;;;;;;;5076803;28;20195;-69
2022/09/05 10:10:04;;;;;;;3.15;2.70;;;;;;;;;;5084615;28;20203;-69
2022/09/05 10:12:46;;;;;;;3.20;2.90;;;;;;;;;;5093323;28;20288;-69
2022/09/05 10:15:25;;;;;;;3.30;2.88;;;;;;;;;;5090060;28;20191;-69
2022/09/05 10:18:10;;;;;;;4.05;2.67;;;;;;;;;;5092556;28;20302;-69
2022/09/05 10:20:40;;;;;;;3.38;3.00;;;;;;;;;;5080425;28;20199;-69
2022/09/05 10:23:26;;;;;;;3.25;2.97;;;;;;;;;;5074203;28;20207;-70
2022/09/05 10:26:12;;;;;;;3.00;2.80;;;;;;;;;;5072109;28;20224;-69
2022/09/05 10:28:43;;;;;;;2.80;2.60;;;;;;;;;;5072841;28;20205;-70
2022/09/05 10:31:16;;;;;;;3.15;2.95;;;;;;;;;;5074057;28;20204;-70
2022/09/05 10:33:49;;;;;;;3.28;3.03;;;;;;;;;;5073640;28;20565;-70
2022/09/05 10:36:24;;;;;;;3.13;2.83;;;;;;;;;;5073329;28;20313;-69
2022/09/05 10:38:59;;;;;;;3.13;2.92;;;;;;;;;;5072350;28;20204;-69
2022/09/05 10:41:32;;;;;;;3.05;2.85;;;;;;;;;;5071194;28;20214;-70
2022/09/05 10:44:02;;;;;;;3.30;3.10;;;;;;;;;;5072103;28;20204;-70
2022/09/05 10:46:35;;;;;;;3.05;2.85;;;;;;;;;;5071680;28;20240;-70
2022/09/05 10:49:06;;;;;;;3.10;2.90;;;;;;;;;;5074812;28;20219;-69
2022/09/05 10:51:36;;;;;;;3.30;3.10;;;;;;;;;;5093442;28;20203;-69
2022/09/05 10:54:11;;;;;;;3.00;2.83;;;;;;;;;;5092229;28;20211;-69
2022/09/05 10:56:40;;;;;;;3.20;3.00;;;;;;;;;;5086337;28;20202;-69
2022/09/05 10:59:16;;;;;;;2.72;2.53;;;;;;;;;;5071670;28;20204;-70
2022/09/05 11:01:46;;;;;;;3.05;2.85;;;;;;;;;;5071161;28;20214;-69
2022/09/05 11:04:16;;;;;;;3.45;2.95;;;;;;;;;;5086095;28;20277;-70
2022/09/05 11:06:58;;;;;;;2.58;2.47;;;;;;;;;;5093009;28;20195;-70
2022/09/05 11:09:31;;;;;;;3.03;2.83;;;;;;;;;;5092598;28;20497;-69
2022/09/05 11:12:03;;;;;;;3.30;3.10;;;;;;;;;;5092654;28;20576;-70
2022/09/05 11:14:45;;;;;;;3.55;3.25;;;;;;;;;;5091936;28;20200;-70
2022/09/05 11:17:17;;;;;;;3.05;2.85;;;;;;;;;;5091884;28;20758;-70
2022/09/05 11:19:45;;;;;;;3.28;3.08;;;;;;;;;;5091771;28;20564;-70
2022/09/05 11:22:14;;;;;;;3.10;2.90;;;;;;;;;;5094485;28;20203;-70
2022/09/05 11:24:47;;;;;;;3.17;2.97;;;;;;;;;;5096524;28;20269;-69
2022/09/05 11:27:22;;;;;;;2.97;2.78;;;;;;;;;;5096806;28;20214;-69
2022/09/05 11:29:52;;;;;;;3.08;2.88;;;;;;;;;;5096701;28;20203;-69
2022/09/05 11:32:26;;;;;;;3.00;2.80;;;;;;;;;;5096187;28;20207;-70
2022/09/05 11:35:02;;;;;;;3.25;3.05;;;;;;;;;;5095202;28;20209;-70
2022/09/05 11:37:42;;;;;;;3.42;3.22;;;;;;;;;;5096145;28;20207;-70
2022/09/05 11:40:18;;;;;;;3.13;2.92;;;;;;;;;;5095393;28;20310;-70
2022/09/05 11:42:53;;;;;;;3.13;2.92;;;;;;;;;;5093233;28;20207;-70
2022/09/05 11:45:34;;;;;;;3.15;2.95;;;;;;;;;;5096415;28;20237;-69
2022/09/05 11:48:19;;;;;;;3.20;3.00;;;;;;;;;;5095225;28;20239;-69
2022/09/05 11:51:07;;;;;;;2.90;2.70;;;;;;;;;;5095488;28;20579;-70
2022/09/05 11:53:41;;;;;;;3.05;2.85;;;;;;;;;;5094533;28;20310;-70
2022/09/05 11:56:12;;;;;;;3.00;2.80;;;;;;;;;;5095373;28;20198;-69
2022/09/05 11:58:57;;;;;;;3.10;2.88;;;;;;;;;;5096057;28;20523;-69
2022/09/05 12:01:30;;;;;;;3.00;2.80;;;;;;;;;;5095352;28;20195;-69
2022/09/05 12:04:15;;;;;;;3.00;2.80;;;;;;;;;;5094848;28;20265;-69
2022/09/05 12:07:02;;;;;;;2.55;2.45;;;;;;;;;;5094471;28;20203;-69
2022/09/05 12:09:37;;;;;;;2.72;2.53;;;;;;;;;;5092261;28;20595;-69
2022/09/05 12:12:15;;;;;;;2.90;2.70;;;;;;;;;;5073633;28;20265;-69
2022/09/05 12:14:45;;;;;;;3.03;2.83;;;;;;;;;;5074694;28;20207;-69
2022/09/05 12:17:22;;;;;;;2.90;2.70;;;;;;;;;;5075402;28;20216;-69
2022/09/05 12:19:56;;;;;;;3.05;2.85;;;;;;;;;;5074578;28;20216;-69
2022/09/05 12:22:28;;;;;;;3.08;2.88;;;;;;;;;;5074602;28;20196;-69
2022/09/05 12:25:03;;;;;;;2.65;2.50;;;;;;;;;;5074318;28;20232;-69
2022/09/05 12:27:32;;;;;;;3.00;2.80;;;;;;;;;;5073611;28;20227;-70
2022/09/05 12:30:04;;;;;;;3.10;2.90;;;;;;;;;;5072689;28;20215;-69
2022/09/05 12:32:35;;;;;;;3.00;2.80;;;;;;;;;;5073122;28;20299;-70
2022/09/05 12:35:04;;;;;;;3.30;3.10;;;;;;;;;;5073143;28;20192;-69
2022/09/05 12:37:35;;;;;;;2.78;2.67;;;;;;;;;;5078904;28;20199;-69
2022/09/05 12:40:08;;;;;;;2.80;2.70;;;;;;;;;;5093821;28;20207;-69
2022/09/05 12:42:40;;;;;;;3.08;2.88;;;;;;;;;;5094158;28;20295;-69
2022/09/05 12:45:15;;;;;;;2.67;2.58;;;;;;;;;;5093761;28;20231;-70
2022/09/05 12:47:56;;;;;;;2.67;2.47;;;;;;;;;;5093873;28;20329;-69
2022/09/05 12:50:28;;;;;;;3.30;3.10;;;;;;;;;;5094599;28;20196;-69
2022/09/05 12:53:00;;;;;;;2.95;2.75;;;;;;;;;;5092777;28;20349;-69
2022/09/05 12:55:32;;;;;;;3.10;2.90;;;;;;;;;;5093897;28;20735;-69
2022/09/05 12:58:00;;;;;;;3.10;2.90;;;;;;;;;;5093529;28;20302;-69
2022/09/05 13:00:28;;;;;;;3.00;2.80;;;;;;;;;;5093318;28;20214;-69
2022/09/05 13:02:59;;;;;;;3.20;3.00;;;;;;;;;;5074148;28;20227;-69
2022/09/05 13:05:33;;;;;;;3.10;2.90;;;;;;;;;;5072326;28;20228;-69
2022/09/05 13:08:02;;;;;;;2.97;2.78;;;;;;;;;;5072597;28;20220;-69
2022/09/05 13:10:32;;;;;;;3.17;2.97;;;;;;;;;;5073081;28;20243;-69
2022/09/05 13:13:05;;;;;;;3.05;2.85;;;;;;;;;;5073223;28;20333;-69
2022/09/05 13:15:35;;;;;;;3.08;2.88;;;;;;;;;;5072205;28;20200;-69
2022/09/05 13:18:09;;;;;;;2.85;2.65;;;;;;;;;;5072776;28;20231;-69
2022/09/05 13:20:38;;;;;;;3.00;2.80;;;;;;;;;;5073030;28;20734;-70
2022/09/05 13:23:14;;;;;;;3.08;2.88;;;;;;;;;;5075491;28;20211;-70
2022/09/05 13:25:43;;;;;;;3.08;2.88;;;;;;;;;;5087406;28;20215;-70
2022/09/05 13:28:12;;;;;;;3.30;3.10;;;;;;;;;;5092463;28;20226;-69
2022/09/05 13:30:49;;;;;;;2.83;2.63;;;;;;;;;;5073703;28;20204;-69
2022/09/05 13:33:19;;;;;;;3.10;2.90;;;;;;;;;;5072211;28;20588;-69
2022/09/05 13:36:02;;;;;;;3.78;3.58;;;;;;;;;;5072359;28;20632;-69
2022/09/05 13:38:37;;;;;;;3.30;3.10;;;;;;;;;;5072385;28;20269;-69
2022/09/05 13:41:12;;;;;;;3.10;2.90;;;;;;;;;;5072825;28;20200;-69
2022/09/05 13:43:39;;;;;;;3.00;2.80;;;;;;;;;;5071959;28;20204;-69
2022/09/05 13:46:11;;;;;;;3.55;3.30;;;;;;;;;;5071192;28;20230;-69
2022/09/05 13:48:48;;;;;;;3.13;2.80;;;;;;;;;;5072632;28;20938;-69
2022/09/05 13:51:28;;;;;;;3.58;3.28;;;;;;;;;;5072597;28;20200;-70
2022/09/05 13:54:03;;;;;;;3.15;2.95;;;;;;;;;;5072229;28;20328;-69
2022/09/05 13:56:34;;;;;;;3.38;3.17;;;;;;;;;;5075859;28;20195;-69
2022/09/05 13:59:02;;;;;;;3.63;2.88;;;;;;;;;;5071394;28;20238;-69
2022/09/05 14:01:45;;;;;;;3.10;2.90;;;;;;;;;;5072274;28;20213;-69
2022/09/05 14:04:44;;;;;;;3.50;3.30;;;;;;;;;;5070383;28;20200;-69
2022/09/05 14:07:19;;;;;;;3.55;3.35;;;;;;;;;;5071894;28;20634;-69
2022/09/05 14:09:52;;;;;;;3.17;2.97;;;;;;;;;;5072007;28;20206;-69
2022/09/05 14:12:29;;;;;;;3.33;3.13;;;;;;;;;;5072256;28;20200;-69
2022/09/05 14:14:58;;;;;;;3.53;3.33;;;;;;;;;;5073280;28;20569;-69
2022/09/05 14:17:30;;;;;;;3.53;3.33;;;;;;;;;;5073334;28;20552;-69
2022/09/05 14:22:46;;;;;;;3.25;3.05;;;;;;;;;;5076197;28;20199;-69
2022/09/05 14:25:16;;;;;;;3.40;3.20;;;;;;;;;;5084288;28;20219;-69
2022/09/05 14:27:44;;;;;;;3.30;3.10;;;;;;;;;;5092471;28;20510;-70
2022/09/05 14:30:27;;;;;;;3.45;3.25;;;;;;;;;;5091651;28;20204;-70
2022/09/05 14:33:04;;;;;;;3.53;3.22;;;;;;;;;;5090757;28;20203;-70
2022/09/05 14:35:35;;;;;;;3.50;3.30;;;;;;;;;;5088893;28;20203;-69
2022/09/05 14:38:07;;;;;;;3.38;3.17;;;;;;;;;;5086897;28;20276;-70
2022/09/05 14:40:53;;;;;;;3.58;3.28;;;;;;;;;;5091353;28;20196;-69
2022/09/05 14:43:31;;;;;;;3.35;3.15;;;;;;;;;;5092604;28;20634;-69
2022/09/05 14:46:14;;;;;;;3.35;3.15;;;;;;;;;;5092516;28;20587;-70
2022/09/05 14:48:52;;;;;;;3.40;3.20;;;;;;;;;;5078079;28;20236;-69
2022/09/05 14:51:28;;;;;;;3.70;3.50;;;;;;;;;;5071888;28;20212;-69
2022/09/05 14:53:58;;;;;;;4.15;3.85;;;;;;;;;;5070884;28;20211;-69
2022/09/05 14:56:29;;;;;;;3.67;3.38;;;;;;;;;;5074329;28;20262;-70
2022/09/05 14:59:11;;;;;;;3.60;3.40;;;;;;;;;;5074725;28;20204;-69
2022/09/05 15:01:49;;;;;;;3.92;3.63;;;;;;;;;;5071970;28;20204;-70
2022/09/05 15:04:21;;;;;;;3.80;3.35;;;;;;;;;;5074690;28;20204;-70
2022/09/05 15:07:01;;;;;;;3.78;3.55;;;;;;;;;;5074754;28;20596;-69
2022/09/05 15:09:28;;;;;;;3.70;3.50;;;;;;;;;;5074886;28;20196;-69
2022/09/05 15:11:58;;;;;;;3.92;3.63;;;;;;;;;;5074185;28;20751;-69
2022/09/05 15:14:27;;;;;;;3.92;3.60;;;;;;;;;;5074940;28;20212;-69
2022/09/05 15:16:59;;;;;;;3.88;3.67;;;;;;;;;;5075877;28;20588;-69
2022/09/05 15:19:47;;;;;;;3.63;3.42;;;;;;;;;;5075452;28;20323;-69
2022/09/05 15:22:24;;;;;;;3.80;3.60;;;;;;;;;;5076227;28;20580;-69
2022/09/05 15:25:01;;;;;;;4.50;4.20;;;;;;;;;;5075970;28;20207;-70
2022/09/05 15:27:29;;;;;;;4.20;3.90;;;;;;;;;;5075886;28;20228;-69
2022/09/05 15:30:00;;;;;;;4.20;3.90;;;;;;;;;;5075460;28;20212;-69